Xambioa, Brazil
Current Conditions -  °F | °C
As of 12:00 AM on Sunday 23 Nov 2014 (Local Time) from SBMA Reporting Station
Thunderstorm Thunderstorm  
Wind Chill: 81°   Ceiling: Unl
Heat Index: 87°   Visibility: 6mi
Dew Point: 77°   Wind: 3mph
Humidity: 89%   Direction: 40°NE
Pressure: 29.83"   Gusts: NA
Location:  6.41°S, 48.54°W
Report Text: SBMA 230300Z 04003KT 9999 VCTS SCT018 FEW029CB 27/25 Q1010
Loading
Personal Weather Stations






























Interactive Weather Map New forecast layout! Learn more

10-Day Weather Forecast

Advertisements
Track Severe Weather on mobile